sensor_id;sensor_type;location;lat;lon;timestamp;P1;durP1;ratioP1;P2;durP2;ratioP2
75285;SDS011;63879;46.064;14.532;2024-03-06T07:01:09;23.60;;;10.18;;
75285;SDS011;63879;46.064;14.532;2024-03-06T07:03:35;24.63;;;10.70;;
75285;SDS011;63879;46.064;14.532;2024-03-06T07:06:01;20.33;;;9.65;;
75285;SDS011;63879;46.064;14.532;2024-03-06T07:08:28;21.80;;;10.40;;
75285;SDS011;63879;46.064;14.532;2024-03-06T07:10:54;18.98;;;10.52;;
75285;SDS011;63879;46.064;14.532;2024-03-06T07:13:20;18.92;;;9.93;;
75285;SDS011;63879;46.064;14.532;2024-03-06T07:15:45;19.92;;;10.20;;
75285;SDS011;63879;46.064;14.532;2024-03-06T07:18:11;22.00;;;9.98;;
75285;SDS011;63879;46.064;14.532;2024-03-06T07:20:36;21.60;;;9.38;;
75285;SDS011;63879;46.064;14.532;2024-03-06T07:23:04;25.08;;;11.60;;
75285;SDS011;63879;46.064;14.532;2024-03-06T07:25:29;19.45;;;8.77;;
75285;SDS011;63879;46.064;14.532;2024-03-06T07:27:55;21.60;;;9.23;;
75285;SDS011;63879;46.064;14.532;2024-03-06T07:30:20;19.98;;;10.05;;
75285;SDS011;63879;46.064;14.532;2024-03-06T07:32:47;24.90;;;10.65;;
75285;SDS011;63879;46.064;14.532;2024-03-06T07:35:13;22.92;;;11.02;;
75285;SDS011;63879;46.064;14.532;2024-03-06T07:37:38;26.02;;;12.75;;
75285;SDS011;63879;46.064;14.532;2024-03-06T07:40:04;18.23;;;9.75;;
75285;SDS011;63879;46.064;14.532;2024-03-06T07:42:34;22.33;;;10.40;;
75285;SDS011;63879;46.064;14.532;2024-03-06T07:45:00;24.92;;;10.80;;
75285;SDS011;63879;46.064;14.532;2024-03-06T07:47:26;25.55;;;13.52;;
75285;SDS011;63879;46.064;14.532;2024-03-06T07:49:51;25.25;;;11.82;;
75285;SDS011;63879;46.064;14.532;2024-03-06T07:52:17;22.75;;;9.93;;
75285;SDS011;63879;46.064;14.532;2024-03-06T07:54:42;22.25;;;9.93;;
75285;SDS011;63879;46.064;14.532;2024-03-06T07:57:08;24.70;;;11.68;;
75285;SDS011;63879;46.064;14.532;2024-03-06T07:59:35;25.58;;;11.40;;
75285;SDS011;63879;46.064;14.532;2024-03-06T08:02:00;24.65;;;10.93;;
75285;SDS011;63879;46.064;14.532;2024-03-06T08:04:26;24.10;;;10.50;;
75285;SDS011;63879;46.064;14.532;2024-03-06T08:06:52;22.25;;;10.95;;
75285;SDS011;63879;46.064;14.532;2024-03-06T08:09:17;20.58;;;8.88;;
75285;SDS011;63879;46.064;14.532;2024-03-06T08:11:44;24.85;;;10.90;;
75285;SDS011;63879;46.064;14.532;2024-03-06T08:14:10;19.23;;;10.25;;
75285;SDS011;63879;46.064;14.532;2024-03-06T08:16:36;23.67;;;10.52;;
75285;SDS011;63879;46.064;14.532;2024-03-06T08:19:05;21.00;;;9.93;;
75285;SDS011;63879;46.064;14.532;2024-03-06T08:21:31;24.13;;;10.68;;
75285;SDS011;63879;46.064;14.532;2024-03-06T08:23:56;20.90;;;9.35;;
75285;SDS011;63879;46.064;14.532;2024-03-06T08:26:22;20.85;;;9.25;;
75285;SDS011;63879;46.064;14.532;2024-03-06T08:28:48;24.48;;;10.95;;
75285;SDS011;63879;46.064;14.532;2024-03-06T08:31:14;21.52;;;9.85;;
75285;SDS011;63879;46.064;14.532;2024-03-06T08:33:39;17.80;;;9.35;;
75285;SDS011;63879;46.064;14.532;2024-03-06T08:36:05;18.10;;;8.50;;
75285;SDS011;63879;46.064;14.532;2024-03-06T08:38:30;17.77;;;9.40;;
75285;SDS011;63879;46.064;14.532;2024-03-06T08:40:56;19.23;;;9.30;;
75285;SDS011;63879;46.064;14.532;2024-03-06T08:43:21;20.17;;;9.10;;
75285;SDS011;63879;46.064;14.532;2024-03-06T08:45:47;23.02;;;9.32;;
75285;SDS011;63879;46.064;14.532;2024-03-06T08:48:12;18.98;;;9.75;;
75285;SDS011;63879;46.064;14.532;2024-03-06T08:50:38;19.83;;;8.80;;
75285;SDS011;63879;46.064;14.532;2024-03-06T08:53:03;20.75;;;9.00;;
75285;SDS011;63879;46.064;14.532;2024-03-06T08:55:29;18.35;;;9.20;;
75285;SDS011;63879;46.064;14.532;2024-03-06T08:57:54;16.10;;;8.07;;
75285;SDS011;63879;46.064;14.532;2024-03-06T09:00:20;19.88;;;9.60;;
75285;SDS011;63879;46.064;14.532;2024-03-06T09:02:45;22.20;;;9.50;;
75285;SDS011;63879;46.064;14.532;2024-03-06T09:05:12;18.98;;;8.60;;
75285;SDS011;63879;46.064;14.532;2024-03-06T09:07:38;19.45;;;10.25;;
75285;SDS011;63879;46.064;14.532;2024-03-06T09:10:07;18.63;;;9.82;;
75285;SDS011;63879;46.064;14.532;2024-03-06T09:12:33;19.83;;;9.48;;
75285;SDS011;63879;46.064;14.532;2024-03-06T09:14:59;17.70;;;9.25;;
75285;SDS011;63879;46.064;14.532;2024-03-06T09:17:25;22.90;;;12.95;;
75285;SDS011;63879;46.064;14.532;2024-03-06T09:19:51;18.27;;;9.80;;
75285;SDS011;63879;46.064;14.532;2024-03-06T09:22:17;19.67;;;12.32;;
75285;SDS011;63879;46.064;14.532;2024-03-06T09:24:42;21.23;;;11.45;;
75285;SDS011;63879;46.064;14.532;2024-03-06T09:27:08;21.83;;;10.57;;
75285;SDS011;63879;46.064;14.532;2024-03-06T09:29:33;24.55;;;13.02;;
75285;SDS011;63879;46.064;14.532;2024-03-06T09:31:59;23.95;;;11.88;;
75285;SDS011;63879;46.064;14.532;2024-03-06T09:34:25;27.40;;;12.07;;
75285;SDS011;63879;46.064;14.532;2024-03-06T09:36:50;21.60;;;11.98;;
75285;SDS011;63879;46.064;14.532;2024-03-06T09:39:16;22.45;;;11.52;;
75285;SDS011;63879;46.064;14.532;2024-03-06T09:41:44;23.88;;;11.23;;
75285;SDS011;63879;46.064;14.532;2024-03-06T09:44:11;21.98;;;11.85;;
75285;SDS011;63879;46.064;14.532;2024-03-06T09:46:38;23.67;;;10.85;;
75285;SDS011;63879;46.064;14.532;2024-03-06T09:49:17;27.75;;;15.85;;
75285;SDS011;63879;46.064;14.532;2024-03-06T09:51:44;26.55;;;11.75;;
75285;SDS011;63879;46.064;14.532;2024-03-06T09:54:11;19.98;;;9.90;;
75285;SDS011;63879;46.064;14.532;2024-03-06T09:56:40;25.77;;;10.93;;
75285;SDS011;63879;46.064;14.532;2024-03-06T09:59:10;22.23;;;9.77;;
75285;SDS011;63879;46.064;14.532;2024-03-06T10:04:28;22.60;;;11.43;;
75285;SDS011;63879;46.064;14.532;2024-03-06T10:06:57;23.63;;;10.55;;
75285;SDS011;63879;46.064;14.532;2024-03-06T10:09:24;22.08;;;12.18;;
75285;SDS011;63879;46.064;14.532;2024-03-06T10:11:50;24.10;;;9.48;;
75285;SDS011;63879;46.064;14.532;2024-03-06T10:14:18;21.45;;;9.70;;
75285;SDS011;63879;46.064;14.532;2024-03-06T10:19:23;21.50;;;10.88;;
75285;SDS011;63879;46.064;14.532;2024-03-06T10:21:52;23.40;;;10.40;;
75285;SDS011;63879;46.064;14.532;2024-03-06T10:24:19;23.08;;;10.88;;
75285;SDS011;63879;46.064;14.532;2024-03-06T10:26:45;23.17;;;10.48;;
75285;SDS011;63879;46.064;14.532;2024-03-06T10:29:13;24.52;;;11.20;;
75285;SDS011;63879;46.064;14.532;2024-03-06T10:31:52;22.20;;;14.07;;
75285;SDS011;63879;46.064;14.532;2024-03-06T10:34:25;25.38;;;11.95;;
75285;SDS011;63879;46.064;14.532;2024-03-06T10:36:55;25.83;;;13.57;;
75285;SDS011;63879;46.064;14.532;2024-03-06T10:39:25;26.92;;;15.35;;
75285;SDS011;63879;46.064;14.532;2024-03-06T10:41:51;22.38;;;14.57;;
75285;SDS011;63879;46.064;14.532;2024-03-06T10:44:22;25.30;;;11.23;;
75285;SDS011;63879;46.064;14.532;2024-03-06T10:46:53;23.65;;;11.32;;
75285;SDS011;63879;46.064;14.532;2024-03-06T10:49:25;27.55;;;11.48;;
75285;SDS011;63879;46.064;14.532;2024-03-06T10:51:52;24.77;;;11.32;;
75285;SDS011;63879;46.064;14.532;2024-03-06T10:54:20;22.55;;;11.50;;
75285;SDS011;63879;46.064;14.532;2024-03-06T10:56:46;23.52;;;14.25;;
75285;SDS011;63879;46.064;14.532;2024-03-06T10:59:12;25.52;;;12.23;;
75285;SDS011;63879;46.064;14.532;2024-03-06T11:01:39;23.45;;;10.38;;
75285;SDS011;63879;46.064;14.532;2024-03-06T11:04:05;26.10;;;12.05;;
75285;SDS011;63879;46.064;14.532;2024-03-06T11:06:32;23.30;;;11.20;;
75285;SDS011;63879;46.064;14.532;2024-03-06T11:08:59;23.40;;;11.20;;
75285;SDS011;63879;46.064;14.532;2024-03-06T11:11:25;25.45;;;11.60;;
75285;SDS011;63879;46.064;14.532;2024-03-06T11:13:54;23.48;;;12.65;;
75285;SDS011;63879;46.064;14.532;2024-03-06T11:16:29;26.80;;;12.75;;
75285;SDS011;63879;46.064;14.532;2024-03-06T11:19:05;27.25;;;11.40;;
75285;SDS011;63879;46.064;14.532;2024-03-06T11:21:32;22.17;;;11.63;;
75285;SDS011;63879;46.064;14.532;2024-03-06T11:27:17;21.88;;;12.00;;
75285;SDS011;63879;46.064;14.532;2024-03-06T11:32:56;24.30;;;11.50;;
75285;SDS011;63879;46.064;14.532;2024-03-06T11:35:23;22.73;;;10.35;;
75285;SDS011;63879;46.064;14.532;2024-03-06T11:37:49;26.23;;;12.00;;
75285;SDS011;63879;46.064;14.532;2024-03-06T11:40:22;26.30;;;15.23;;
75285;SDS011;63879;46.064;14.532;2024-03-06T11:42:50;24.75;;;11.32;;
75285;SDS011;63879;46.064;14.532;2024-03-06T11:45:16;22.70;;;13.98;;
75285;SDS011;63879;46.064;14.532;2024-03-06T11:50:27;23.20;;;12.13;;
75285;SDS011;63879;46.064;14.532;2024-03-06T11:52:59;20.13;;;10.45;;
75285;SDS011;63879;46.064;14.532;2024-03-06T11:55:24;18.20;;;10.15;;
75285;SDS011;63879;46.064;14.532;2024-03-06T11:57:53;23.35;;;12.70;;
75285;SDS011;63879;46.064;14.532;2024-03-06T12:00:22;26.55;;;11.98;;
75285;SDS011;63879;46.064;14.532;2024-03-06T12:02:48;21.38;;;10.93;;
75285;SDS011;63879;46.064;14.532;2024-03-06T12:05:14;21.55;;;11.57;;
75285;SDS011;63879;46.064;14.532;2024-03-06T12:08:12;22.92;;;11.27;;
75285;SDS011;63879;46.064;14.532;2024-03-06T12:10:36;24.35;;;10.48;;
75285;SDS011;63879;46.064;14.532;2024-03-06T12:13:02;24.80;;;11.23;;
75285;SDS011;63879;46.064;14.532;2024-03-06T12:15:28;24.40;;;10.25;;
75285;SDS011;63879;46.064;14.532;2024-03-06T12:17:54;22.05;;;11.23;;
75285;SDS011;63879;46.064;14.532;2024-03-06T12:20:19;23.73;;;10.77;;
75285;SDS011;63879;46.064;14.532;2024-03-06T12:22:48;22.45;;;10.70;;
75285;SDS011;63879;46.064;14.532;2024-03-06T12:25:22;23.10;;;10.48;;
75285;SDS011;63879;46.064;14.532;2024-03-06T12:27:53;25.30;;;11.32;;
75285;SDS011;63879;46.064;14.532;2024-03-06T12:30:19;21.73;;;9.75;;
75285;SDS011;63879;46.064;14.532;2024-03-06T12:33:01;20.95;;;10.15;;
75285;SDS011;63879;46.064;14.532;2024-03-06T12:35:30;22.27;;;10.23;;
75285;SDS011;63879;46.064;14.532;2024-03-06T12:37:56;23.10;;;10.20;;
75285;SDS011;63879;46.064;14.532;2024-03-06T12:40:22;24.23;;;10.77;;
75285;SDS011;63879;46.064;14.532;2024-03-06T12:42:48;26.10;;;12.07;;
75285;SDS011;63879;46.064;14.532;2024-03-06T12:45:15;24.27;;;10.18;;
75285;SDS011;63879;46.064;14.532;2024-03-06T12:47:44;24.77;;;11.80;;
75285;SDS011;63879;46.064;14.532;2024-03-06T12:50:12;21.70;;;11.25;;
75285;SDS011;63879;46.064;14.532;2024-03-06T12:52:38;25.85;;;11.73;;
75285;SDS011;63879;46.064;14.532;2024-03-06T12:55:03;25.63;;;13.75;;
75285;SDS011;63879;46.064;14.532;2024-03-06T12:57:30;24.92;;;10.55;;
75285;SDS011;63879;46.064;14.532;2024-03-06T12:59:56;22.30;;;11.32;;
75285;SDS011;63879;46.064;14.532;2024-03-06T13:02:22;19.98;;;10.25;;
75285;SDS011;63879;46.064;14.532;2024-03-06T13:04:47;21.50;;;10.32;;
75285;SDS011;63879;46.064;14.532;2024-03-06T13:07:13;23.60;;;10.80;;
75285;SDS011;63879;46.064;14.532;2024-03-06T13:09:39;21.58;;;10.07;;
75285;SDS011;63879;46.064;14.532;2024-03-06T13:12:05;21.92;;;10.60;;
75285;SDS011;63879;46.064;14.532;2024-03-06T13:14:31;22.55;;;10.18;;
75285;SDS011;63879;46.064;14.532;2024-03-06T13:16:57;22.77;;;10.80;;
75285;SDS011;63879;46.064;14.532;2024-03-06T13:19:23;20.50;;;10.50;;
75285;SDS011;63879;46.064;14.532;2024-03-06T13:21:49;21.13;;;10.43;;
75285;SDS011;63879;46.064;14.532;2024-03-06T13:24:14;26.65;;;11.43;;
75285;SDS011;63879;46.064;14.532;2024-03-06T13:26:40;23.00;;;11.02;;
75285;SDS011;63879;46.064;14.532;2024-03-06T13:29:05;23.88;;;11.13;;
75285;SDS011;63879;46.064;14.532;2024-03-06T13:31:31;24.90;;;11.18;;
75285;SDS011;63879;46.064;14.532;2024-03-06T13:33:59;21.92;;;9.77;;
75285;SDS011;63879;46.064;14.532;2024-03-06T13:36:25;19.48;;;9.75;;
75285;SDS011;63879;46.064;14.532;2024-03-06T13:38:51;17.25;;;8.70;;
75285;SDS011;63879;46.064;14.532;2024-03-06T13:41:17;18.00;;;8.43;;
75285;SDS011;63879;46.064;14.532;2024-03-06T13:43:42;22.20;;;9.68;;
75285;SDS011;63879;46.064;14.532;2024-03-06T13:46:08;18.65;;;9.57;;
75285;SDS011;63879;46.064;14.532;2024-03-06T13:48:34;22.77;;;9.70;;
75285;SDS011;63879;46.064;14.532;2024-03-06T13:50:59;20.65;;;9.95;;
75285;SDS011;63879;46.064;14.532;2024-03-06T13:53:25;18.35;;;9.80;;
75285;SDS011;63879;46.064;14.532;2024-03-06T13:55:50;18.95;;;8.73;;
75285;SDS011;63879;46.064;14.532;2024-03-06T13:58:17;22.50;;;10.55;;
75285;SDS011;63879;46.064;14.532;2024-03-06T14:00:42;18.67;;;10.20;;
75285;SDS011;63879;46.064;14.532;2024-03-06T14:03:09;23.90;;;11.05;;
75285;SDS011;63879;46.064;14.532;2024-03-06T14:05:37;20.42;;;9.82;;
75285;SDS011;63879;46.064;14.532;2024-03-06T14:08:04;17.65;;;10.52;;
75285;SDS011;63879;46.064;14.532;2024-03-06T14:10:30;24.10;;;11.70;;
75285;SDS011;63879;46.064;14.532;2024-03-06T14:13:00;20.25;;;10.75;;
75285;SDS011;63879;46.064;14.532;2024-03-06T14:15:25;21.98;;;9.90;;
75285;SDS011;63879;46.064;14.532;2024-03-06T14:17:51;19.35;;;9.85;;
75285;SDS011;63879;46.064;14.532;2024-03-06T14:20:19;25.42;;;10.60;;
75285;SDS011;63879;46.064;14.532;2024-03-06T14:22:45;20.92;;;11.20;;
75285;SDS011;63879;46.064;14.532;2024-03-06T14:25:10;20.50;;;11.52;;
75285;SDS011;63879;46.064;14.532;2024-03-06T14:27:36;22.05;;;9.55;;
75285;SDS011;63879;46.064;14.532;2024-03-06T14:30:04;21.88;;;9.82;;
75285;SDS011;63879;46.064;14.532;2024-03-06T14:32:38;21.38;;;10.25;;
75285;SDS011;63879;46.064;14.532;2024-03-06T14:35:04;22.33;;;10.13;;
75285;SDS011;63879;46.064;14.532;2024-03-06T14:37:30;18.67;;;9.02;;
75285;SDS011;63879;46.064;14.532;2024-03-06T14:39:55;23.92;;;13.02;;
75285;SDS011;63879;46.064;14.532;2024-03-06T14:42:21;17.67;;;8.88;;
75285;SDS011;63879;46.064;14.532;2024-03-06T14:44:48;22.02;;;8.70;;
75285;SDS011;63879;46.064;14.532;2024-03-06T14:47:14;18.85;;;8.43;;
75285;SDS011;63879;46.064;14.532;2024-03-06T14:49:41;20.73;;;10.35;;
75285;SDS011;63879;46.064;14.532;2024-03-06T14:52:09;18.15;;;9.15;;
75285;SDS011;63879;46.064;14.532;2024-03-06T14:54:34;17.60;;;8.98;;
75285;SDS011;63879;46.064;14.532;2024-03-06T14:57:00;16.80;;;7.55;;
75285;SDS011;63879;46.064;14.532;2024-03-06T14:59:26;18.85;;;8.95;;
75285;SDS011;63879;46.064;14.532;2024-03-06T15:01:51;20.00;;;8.68;;
75285;SDS011;63879;46.064;14.532;2024-03-06T15:04:17;17.52;;;8.05;;
75285;SDS011;63879;46.064;14.532;2024-03-06T15:06:43;16.83;;;7.80;;
75285;SDS011;63879;46.064;14.532;2024-03-06T15:09:08;17.38;;;8.60;;
75285;SDS011;63879;46.064;14.532;2024-03-06T15:11:38;18.33;;;7.45;;
75285;SDS011;63879;46.064;14.532;2024-03-06T15:14:04;15.65;;;8.48;;
75285;SDS011;63879;46.064;14.532;2024-03-06T15:16:32;18.52;;;8.77;;
75285;SDS011;63879;46.064;14.532;2024-03-06T15:18:58;17.88;;;8.38;;
75285;SDS011;63879;46.064;14.532;2024-03-06T15:21:24;19.58;;;9.88;;
75285;SDS011;63879;46.064;14.532;2024-03-06T15:23:49;17.33;;;9.13;;
75285;SDS011;63879;46.064;14.532;2024-03-06T15:26:16;15.40;;;8.00;;
75285;SDS011;63879;46.064;14.532;2024-03-06T15:28:42;19.77;;;10.02;;
75285;SDS011;63879;46.064;14.532;2024-03-06T15:31:07;18.02;;;9.45;;
75285;SDS011;63879;46.064;14.532;2024-03-06T15:33:33;16.33;;;11.93;;
75285;SDS011;63879;46.064;14.532;2024-03-06T15:35:58;18.50;;;7.88;;
75285;SDS011;63879;46.064;14.532;2024-03-06T15:38:25;17.38;;;8.70;;
75285;SDS011;63879;46.064;14.532;2024-03-06T15:40:52;18.52;;;8.95;;
75285;SDS011;63879;46.064;14.532;2024-03-06T15:43:18;16.67;;;8.70;;
75285;SDS011;63879;46.064;14.532;2024-03-06T15:45:43;15.60;;;9.82;;
75285;SDS011;63879;46.064;14.532;2024-03-06T15:48:09;18.00;;;8.07;;
75285;SDS011;63879;46.064;14.532;2024-03-06T15:50:42;16.85;;;8.23;;
75285;SDS011;63879;46.064;14.532;2024-03-06T15:53:08;16.65;;;9.52;;
75285;SDS011;63879;46.064;14.532;2024-03-06T15:55:35;17.75;;;8.05;;
75285;SDS011;63879;46.064;14.532;2024-03-06T15:58:01;19.58;;;12.25;;
75285;SDS011;63879;46.064;14.532;2024-03-06T16:00:28;15.70;;;8.52;;
75285;SDS011;63879;46.064;14.532;2024-03-06T16:02:53;13.57;;;6.25;;
75285;SDS011;63879;46.064;14.532;2024-03-06T16:05:19;15.85;;;7.63;;
75285;SDS011;63879;46.064;14.532;2024-03-06T16:07:45;13.07;;;7.30;;
75285;SDS011;63879;46.064;14.532;2024-03-06T16:10:10;13.27;;;7.47;;
75285;SDS011;63879;46.064;14.532;2024-03-06T16:12:36;15.07;;;6.80;;
75285;SDS011;63879;46.064;14.532;2024-03-06T16:15:02;10.85;;;6.47;;
75285;SDS011;63879;46.064;14.532;2024-03-06T16:17:29;11.70;;;5.85;;
75285;SDS011;63879;46.064;14.532;2024-03-06T16:19:55;12.85;;;6.47;;
75285;SDS011;63879;46.064;14.532;2024-03-06T16:22:21;13.55;;;9.05;;
75285;SDS011;63879;46.064;14.532;2024-03-06T16:24:46;12.32;;;5.97;;
75285;SDS011;63879;46.064;14.532;2024-03-06T16:27:12;13.68;;;6.38;;
75285;SDS011;63879;46.064;14.532;2024-03-06T16:29:38;11.02;;;5.85;;
75285;SDS011;63879;46.064;14.532;2024-03-06T16:32:04;10.30;;;5.10;;
75285;SDS011;63879;46.064;14.532;2024-03-06T16:34:31;11.57;;;5.18;;
75285;SDS011;63879;46.064;14.532;2024-03-06T16:36:57;11.43;;;5.90;;
75285;SDS011;63879;46.064;14.532;2024-03-06T16:39:23;10.60;;;5.40;;
75285;SDS011;63879;46.064;14.532;2024-03-06T16:41:49;13.45;;;5.05;;
75285;SDS011;63879;46.064;14.532;2024-03-06T16:44:14;11.70;;;5.43;;
75285;SDS011;63879;46.064;14.532;2024-03-06T16:46:39;8.82;;;5.18;;
75285;SDS011;63879;46.064;14.532;2024-03-06T16:49:05;11.38;;;7.28;;
75285;SDS011;63879;46.064;14.532;2024-03-06T16:51:32;12.68;;;6.13;;
75285;SDS011;63879;46.064;14.532;2024-03-06T16:53:58;11.43;;;5.90;;
75285;SDS011;63879;46.064;14.532;2024-03-06T16:56:26;10.02;;;5.30;;
75285;SDS011;63879;46.064;14.532;2024-03-06T16:58:53;9.98;;;5.10;;
75285;SDS011;63879;46.064;14.532;2024-03-06T17:01:18;11.75;;;6.05;;
75285;SDS011;63879;46.064;14.532;2024-03-06T17:03:44;12.18;;;5.32;;
75285;SDS011;63879;46.064;14.532;2024-03-06T17:06:10;10.25;;;5.45;;
75285;SDS011;63879;46.064;14.532;2024-03-06T17:08:36;10.05;;;5.65;;
75285;SDS011;63879;46.064;14.532;2024-03-06T17:11:01;12.45;;;5.20;;
75285;SDS011;63879;46.064;14.532;2024-03-06T17:13:27;9.13;;;4.85;;
75285;SDS011;63879;46.064;14.532;2024-03-06T17:15:52;10.80;;;5.43;;
75285;SDS011;63879;46.064;14.532;2024-03-06T17:18:19;9.18;;;5.25;;
75285;SDS011;63879;46.064;14.532;2024-03-06T17:20:46;12.90;;;8.23;;
75285;SDS011;63879;46.064;14.532;2024-03-06T17:23:11;10.15;;;5.88;;
75285;SDS011;63879;46.064;14.532;2024-03-06T17:25:37;9.50;;;5.43;;
75285;SDS011;63879;46.064;14.532;2024-03-06T17:28:03;12.02;;;5.72;;
75285;SDS011;63879;46.064;14.532;2024-03-06T17:30:29;11.10;;;6.07;;
75285;SDS011;63879;46.064;14.532;2024-03-06T17:32:55;10.73;;;6.32;;
75285;SDS011;63879;46.064;14.532;2024-03-06T17:35:21;13.85;;;7.05;;
75285;SDS011;63879;46.064;14.532;2024-03-06T17:37:46;11.20;;;6.15;;
75285;SDS011;63879;46.064;14.532;2024-03-06T17:40:15;11.23;;;5.55;;
75285;SDS011;63879;46.064;14.532;2024-03-06T17:42:40;11.93;;;6.43;;
75285;SDS011;63879;46.064;14.532;2024-03-06T17:45:08;10.63;;;6.05;;
75285;SDS011;63879;46.064;14.532;2024-03-06T17:47:33;10.15;;;5.55;;
75285;SDS011;63879;46.064;14.532;2024-03-06T17:49:59;7.70;;;4.13;;
75285;SDS011;63879;46.064;14.532;2024-03-06T17:52:25;8.35;;;4.38;;
75285;SDS011;63879;46.064;14.532;2024-03-06T17:54:51;5.68;;;2.88;;
75285;SDS011;63879;46.064;14.532;2024-03-06T17:57:16;6.85;;;3.58;;
75285;SDS011;63879;46.064;14.532;2024-03-06T17:59:42;6.57;;;3.33;;
75285;SDS011;63879;46.064;14.532;2024-03-06T18:02:07;6.20;;;5.60;;
75285;SDS011;63879;46.064;14.532;2024-03-06T18:04:33;4.00;;;2.60;;
75285;SDS011;63879;46.064;14.532;2024-03-06T18:06:58;5.72;;;2.92;;
75285;SDS011;63879;46.064;14.532;2024-03-06T18:09:24;6.05;;;3.40;;
75285;SDS011;63879;46.064;14.532;2024-03-06T18:11:50;7.47;;;3.45;;
75285;SDS011;63879;46.064;14.532;2024-03-06T18:14:16;5.15;;;3.38;;
75285;SDS011;63879;46.064;14.532;2024-03-06T18:16:45;5.65;;;3.35;;
75285;SDS011;63879;46.064;14.532;2024-03-06T18:19:11;6.18;;;3.47;;
75285;SDS011;63879;46.064;14.532;2024-03-06T18:21:41;6.78;;;6.07;;
75285;SDS011;63879;46.064;14.532;2024-03-06T18:24:08;6.65;;;3.80;;
75285;SDS011;63879;46.064;14.532;2024-03-06T18:26:39;6.50;;;3.53;;
75285;SDS011;63879;46.064;14.532;2024-03-06T18:29:09;5.40;;;3.15;;
75285;SDS011;63879;46.064;14.532;2024-03-06T18:31:35;7.00;;;3.83;;
75285;SDS011;63879;46.064;14.532;2024-03-06T18:34:01;5.45;;;3.58;;
75285;SDS011;63879;46.064;14.532;2024-03-06T18:36:27;9.20;;;3.85;;
75285;SDS011;63879;46.064;14.532;2024-03-06T18:38:52;9.88;;;5.15;;
75285;SDS011;63879;46.064;14.532;2024-03-06T18:41:17;19.27;;;8.45;;
75285;SDS011;63879;46.064;14.532;2024-03-06T18:43:43;16.83;;;8.27;;
75285;SDS011;63879;46.064;14.532;2024-03-06T18:46:09;9.68;;;4.38;;
75285;SDS011;63879;46.064;14.532;2024-03-06T18:48:34;9.40;;;5.18;;
75285;SDS011;63879;46.064;14.532;2024-03-06T18:51:00;7.53;;;4.68;;
75285;SDS011;63879;46.064;14.532;2024-03-06T18:53:25;5.50;;;4.07;;
75285;SDS011;63879;46.064;14.532;2024-03-06T18:55:51;7.85;;;3.88;;
75285;SDS011;63879;46.064;14.532;2024-03-06T18:58:16;6.35;;;3.72;;
75285;SDS011;63879;46.064;14.532;2024-03-06T19:00:42;8.15;;;4.53;;
75285;SDS011;63879;46.064;14.532;2024-03-06T19:03:08;6.03;;;3.92;;
75285;SDS011;63879;46.064;14.532;2024-03-06T19:05:33;6.65;;;3.35;;
75285;SDS011;63879;46.064;14.532;2024-03-06T19:07:59;5.43;;;2.90;;
75285;SDS011;63879;46.064;14.532;2024-03-06T19:10:24;5.82;;;3.95;;
75285;SDS011;63879;46.064;14.532;2024-03-06T19:12:50;7.82;;;4.05;;
75285;SDS011;63879;46.064;14.532;2024-03-06T19:15:16;7.60;;;3.50;;
75285;SDS011;63879;46.064;14.532;2024-03-06T19:17:41;6.28;;;3.30;;
75285;SDS011;63879;46.064;14.532;2024-03-06T19:20:07;6.28;;;3.85;;
75285;SDS011;63879;46.064;14.532;2024-03-06T19:22:37;8.35;;;4.28;;
75285;SDS011;63879;46.064;14.532;2024-03-06T19:25:03;7.70;;;4.30;;
75285;SDS011;63879;46.064;14.532;2024-03-06T19:27:30;6.18;;;3.58;;
75285;SDS011;63879;46.064;14.532;2024-03-06T19:29:57;7.93;;;4.57;;
75285;SDS011;63879;46.064;14.532;2024-03-06T19:32:23;7.43;;;3.95;;
75285;SDS011;63879;46.064;14.532;2024-03-06T19:34:52;6.15;;;3.40;;
75285;SDS011;63879;46.064;14.532;2024-03-06T19:37:17;4.93;;;3.50;;
75285;SDS011;63879;46.064;14.532;2024-03-06T19:39:43;8.10;;;3.10;;
75285;SDS011;63879;46.064;14.532;2024-03-06T19:42:09;4.63;;;3.53;;
75285;SDS011;63879;46.064;14.532;2024-03-06T19:44:35;7.32;;;4.32;;
75285;SDS011;63879;46.064;14.532;2024-03-06T19:47:00;7.93;;;4.20;;
75285;SDS011;63879;46.064;14.532;2024-03-06T19:49:26;8.13;;;4.75;;
75285;SDS011;63879;46.064;14.532;2024-03-06T19:51:53;7.22;;;4.00;;
75285;SDS011;63879;46.064;14.532;2024-03-06T19:54:19;7.07;;;4.85;;
75285;SDS011;63879;46.064;14.532;2024-03-06T19:56:47;10.15;;;5.78;;
75285;SDS011;63879;46.064;14.532;2024-03-06T19:59:13;7.32;;;4.45;;
75285;SDS011;63879;46.064;14.532;2024-03-06T20:01:38;7.68;;;5.43;;
75285;SDS011;63879;46.064;14.532;2024-03-06T20:04:04;10.38;;;5.45;;
75285;SDS011;63879;46.064;14.532;2024-03-06T20:06:30;8.77;;;5.43;;
75285;SDS011;63879;46.064;14.532;2024-03-06T20:08:59;10.77;;;5.75;;
75285;SDS011;63879;46.064;14.532;2024-03-06T20:11:24;15.95;;;7.95;;
75285;SDS011;63879;46.064;14.532;2024-03-06T20:13:51;22.67;;;12.43;;
75285;SDS011;63879;46.064;14.532;2024-03-06T20:16:16;24.83;;;11.90;;
75285;SDS011;63879;46.064;14.532;2024-03-06T20:18:42;25.73;;;11.73;;
75285;SDS011;63879;46.064;14.532;2024-03-06T20:21:07;24.15;;;11.50;;
75285;SDS011;63879;46.064;14.532;2024-03-06T20:23:34;17.02;;;9.05;;
75285;SDS011;63879;46.064;14.532;2024-03-06T20:25:59;19.83;;;9.15;;
75285;SDS011;63879;46.064;14.532;2024-03-06T20:28:27;24.08;;;11.63;;
75285;SDS011;63879;46.064;14.532;2024-03-06T20:30:52;21.85;;;11.07;;
75285;SDS011;63879;46.064;14.532;2024-03-06T20:33:18;21.00;;;11.30;;
75285;SDS011;63879;46.064;14.532;2024-03-06T20:35:43;23.42;;;12.05;;
75285;SDS011;63879;46.064;14.532;2024-03-06T20:38:09;22.50;;;10.80;;
75285;SDS011;63879;46.064;14.532;2024-03-06T20:40:38;19.15;;;10.38;;
75285;SDS011;63879;46.064;14.532;2024-03-06T20:43:05;21.80;;;13.45;;
75285;SDS011;63879;46.064;14.532;2024-03-06T20:45:32;21.08;;;11.68;;
75285;SDS011;63879;46.064;14.532;2024-03-06T20:47:59;19.55;;;10.30;;
75285;SDS011;63879;46.064;14.532;2024-03-06T20:50:25;21.80;;;10.57;;
75285;SDS011;63879;46.064;14.532;2024-03-06T20:52:51;27.38;;;14.70;;
75285;SDS011;63879;46.064;14.532;2024-03-06T20:55:17;23.05;;;11.45;;
75285;SDS011;63879;46.064;14.532;2024-03-06T20:57:43;23.67;;;12.48;;
75285;SDS011;63879;46.064;14.532;2024-03-06T21:00:09;26.35;;;11.82;;
75285;SDS011;63879;46.064;14.532;2024-03-06T21:02:37;24.92;;;11.95;;
75285;SDS011;63879;46.064;14.532;2024-03-06T21:05:03;24.40;;;12.15;;
75285;SDS011;63879;46.064;14.532;2024-03-06T21:07:30;28.23;;;13.18;;
75285;SDS011;63879;46.064;14.532;2024-03-06T21:09:56;25.33;;;12.85;;
75285;SDS011;63879;46.064;14.532;2024-03-06T21:12:22;29.40;;;13.23;;
75285;SDS011;63879;46.064;14.532;2024-03-06T21:14:47;25.20;;;12.52;;
75285;SDS011;63879;46.064;14.532;2024-03-06T21:17:17;26.45;;;13.23;;
75285;SDS011;63879;46.064;14.532;2024-03-06T21:19:42;25.70;;;13.82;;
75285;SDS011;63879;46.064;14.532;2024-03-06T21:22:08;26.13;;;13.35;;
75285;SDS011;63879;46.064;14.532;2024-03-06T21:24:34;23.02;;;12.32;;
75285;SDS011;63879;46.064;14.532;2024-03-06T21:27:02;24.27;;;12.60;;
75285;SDS011;63879;46.064;14.532;2024-03-06T21:29:28;27.70;;;12.70;;